sensor_id;sensor_type;location;lat;lon;timestamp;temperature;humidity
6964;DHT22;3522;50.856;7.278;2023-02-22T00:00:08;4.70;99.90
6964;DHT22;3522;50.856;7.278;2023-02-22T00:02:43;4.70;99.90
6964;DHT22;3522;50.856;7.278;2023-02-22T00:05:10;4.70;99.90
6964;DHT22;3522;50.856;7.278;2023-02-22T00:07:39;4.70;99.90
6964;DHT22;3522;50.856;7.278;2023-02-22T00:10:06;4.70;99.90
6964;DHT22;3522;50.856;7.278;2023-02-22T00:12:39;4.80;99.90
6964;DHT22;3522;50.856;7.278;2023-02-22T00:15:06;4.80;99.90
6964;DHT22;3522;50.856;7.278;2023-02-22T00:17:32;4.80;99.90
6964;DHT22;3522;50.856;7.278;2023-02-22T00:19:59;4.90;99.90
6964;DHT22;3522;50.856;7.278;2023-02-22T00:22:25;4.80;99.90
6964;DHT22;3522;50.856;7.278;2023-02-22T00:24:52;4.80;99.90
6964;DHT22;3522;50.856;7.278;2023-02-22T00:27:19;4.80;99.90
6964;DHT22;3522;50.856;7.278;2023-02-22T00:29:47;4.80;99.90
6964;DHT22;3522;50.856;7.278;2023-02-22T00:32:14;4.80;99.90
6964;DHT22;3522;50.856;7.278;2023-02-22T00:34:40;4.80;99.90
6964;DHT22;3522;50.856;7.278;2023-02-22T00:37:08;4.80;99.90
6964;DHT22;3522;50.856;7.278;2023-02-22T00:39:35;4.70;99.90
6964;DHT22;3522;50.856;7.278;2023-02-22T00:42:01;4.70;99.90
6964;DHT22;3522;50.856;7.278;2023-02-22T00:44:28;4.70;99.90
6964;DHT22;3522;50.856;7.278;2023-02-22T00:46:56;4.70;99.90
6964;DHT22;3522;50.856;7.278;2023-02-22T00:49:23;4.70;99.90
6964;DHT22;3522;50.856;7.278;2023-02-22T00:51:50;4.70;99.90
6964;DHT22;3522;50.856;7.278;2023-02-22T00:54:16;4.70;99.90
6964;DHT22;3522;50.856;7.278;2023-02-22T00:56:44;4.60;99.90
6964;DHT22;3522;50.856;7.278;2023-02-22T00:59:11;4.60;99.90
6964;DHT22;3522;50.856;7.278;2023-02-22T01:01:37;4.60;99.90
6964;DHT22;3522;50.856;7.278;2023-02-22T01:04:05;4.70;99.90
6964;DHT22;3522;50.856;7.278;2023-02-22T01:06:32;4.70;99.90
6964;DHT22;3522;50.856;7.278;2023-02-22T01:08:59;4.60;99.90
6964;DHT22;3522;50.856;7.278;2023-02-22T01:11:27;4.50;99.90
6964;DHT22;3522;50.856;7.278;2023-02-22T01:13:54;4.40;99.90
6964;DHT22;3522;50.856;7.278;2023-02-22T01:16:22;4.30;99.90
6964;DHT22;3522;50.856;7.278;2023-02-22T01:18:48;4.30;99.90
6964;DHT22;3522;50.856;7.278;2023-02-22T01:21:16;4.30;99.90
6964;DHT22;3522;50.856;7.278;2023-02-22T01:23:43;4.40;99.90
6964;DHT22;3522;50.856;7.278;2023-02-22T01:26:10;4.50;99.90
6964;DHT22;3522;50.856;7.278;2023-02-22T01:28:36;4.70;99.90
6964;DHT22;3522;50.856;7.278;2023-02-22T01:31:03;4.80;99.90
6964;DHT22;3522;50.856;7.278;2023-02-22T01:33:30;5.00;99.90
6964;DHT22;3522;50.856;7.278;2023-02-22T01:35:58;5.00;99.90
6964;DHT22;3522;50.856;7.278;2023-02-22T01:38:26;5.10;99.90
6964;DHT22;3522;50.856;7.278;2023-02-22T01:40:52;5.20;99.90
6964;DHT22;3522;50.856;7.278;2023-02-22T01:43:21;5.20;99.90
6964;DHT22;3522;50.856;7.278;2023-02-22T01:45:49;5.20;99.90
6964;DHT22;3522;50.856;7.278;2023-02-22T01:48:19;5.30;99.90
6964;DHT22;3522;50.856;7.278;2023-02-22T01:50:47;5.30;99.90
6964;DHT22;3522;50.856;7.278;2023-02-22T01:53:17;5.40;99.90
6964;DHT22;3522;50.856;7.278;2023-02-22T01:55:45;5.40;99.90
6964;DHT22;3522;50.856;7.278;2023-02-22T01:58:12;5.40;99.90
6964;DHT22;3522;50.856;7.278;2023-02-22T02:00:40;5.50;99.90
6964;DHT22;3522;50.856;7.278;2023-02-22T02:03:07;5.50;99.90
6964;DHT22;3522;50.856;7.278;2023-02-22T02:05:35;5.50;99.90
6964;DHT22;3522;50.856;7.278;2023-02-22T02:08:04;5.50;99.90
6964;DHT22;3522;50.856;7.278;2023-02-22T02:10:33;5.50;99.90
6964;DHT22;3522;50.856;7.278;2023-02-22T02:13:01;5.50;99.90
6964;DHT22;3522;50.856;7.278;2023-02-22T02:15:29;5.50;99.90
6964;DHT22;3522;50.856;7.278;2023-02-22T02:17:57;5.50;99.90
6964;DHT22;3522;50.856;7.278;2023-02-22T02:20:26;5.50;99.90
6964;DHT22;3522;50.856;7.278;2023-02-22T02:22:55;5.50;99.90
6964;DHT22;3522;50.856;7.278;2023-02-22T02:25:33;5.50;99.90
6964;DHT22;3522;50.856;7.278;2023-02-22T02:30:50;5.50;99.90
6964;DHT22;3522;50.856;7.278;2023-02-22T02:33:23;5.60;99.90
6964;DHT22;3522;50.856;7.278;2023-02-22T02:35:55;5.60;99.90
6964;DHT22;3522;50.856;7.278;2023-02-22T02:38:29;5.60;99.90
6964;DHT22;3522;50.856;7.278;2023-02-22T02:40:58;5.60;99.90
6964;DHT22;3522;50.856;7.278;2023-02-22T02:43:28;5.50;99.90
6964;DHT22;3522;50.856;7.278;2023-02-22T02:45:57;5.60;99.90
6964;DHT22;3522;50.856;7.278;2023-02-22T02:48:28;5.50;99.90
6964;DHT22;3522;50.856;7.278;2023-02-22T02:50:57;5.50;99.90
6964;DHT22;3522;50.856;7.278;2023-02-22T02:53:26;5.50;99.90
6964;DHT22;3522;50.856;7.278;2023-02-22T02:55:57;5.50;99.90
6964;DHT22;3522;50.856;7.278;2023-02-22T02:58:23;5.50;99.90
6964;DHT22;3522;50.856;7.278;2023-02-22T03:00:50;5.50;99.90
6964;DHT22;3522;50.856;7.278;2023-02-22T03:03:27;5.40;99.90
6964;DHT22;3522;50.856;7.278;2023-02-22T03:06:03;5.40;99.90
6964;DHT22;3522;50.856;7.278;2023-02-22T03:08:33;5.40;99.90
6964;DHT22;3522;50.856;7.278;2023-02-22T03:11:04;5.40;99.90
6964;DHT22;3522;50.856;7.278;2023-02-22T03:13:41;5.40;99.90
6964;DHT22;3522;50.856;7.278;2023-02-22T03:16:12;5.40;99.90
6964;DHT22;3522;50.856;7.278;2023-02-22T03:18:43;5.40;99.90
6964;DHT22;3522;50.856;7.278;2023-02-22T03:21:13;5.40;99.90
6964;DHT22;3522;50.856;7.278;2023-02-22T03:23:45;5.40;99.90
6964;DHT22;3522;50.856;7.278;2023-02-22T03:26:15;5.40;99.90
6964;DHT22;3522;50.856;7.278;2023-02-22T03:28:48;5.40;99.90
6964;DHT22;3522;50.856;7.278;2023-02-22T03:31:17;5.40;99.90
6964;DHT22;3522;50.856;7.278;2023-02-22T03:33:46;5.30;99.90
6964;DHT22;3522;50.856;7.278;2023-02-22T03:36:18;5.30;99.90
6964;DHT22;3522;50.856;7.278;2023-02-22T03:38:45;5.30;99.90
6964;DHT22;3522;50.856;7.278;2023-02-22T03:41:14;5.30;99.90
6964;DHT22;3522;50.856;7.278;2023-02-22T03:43:43;5.30;99.90
6964;DHT22;3522;50.856;7.278;2023-02-22T03:46:11;5.30;99.90
6964;DHT22;3522;50.856;7.278;2023-02-22T03:48:40;5.30;99.90
6964;DHT22;3522;50.856;7.278;2023-02-22T03:51:09;5.30;99.90
6964;DHT22;3522;50.856;7.278;2023-02-22T03:53:40;5.30;99.90
6964;DHT22;3522;50.856;7.278;2023-02-22T03:56:09;5.30;99.90
6964;DHT22;3522;50.856;7.278;2023-02-22T03:58:38;5.30;99.90
6964;DHT22;3522;50.856;7.278;2023-02-22T04:01:08;5.30;99.90
6964;DHT22;3522;50.856;7.278;2023-02-22T04:03:35;5.30;99.90
6964;DHT22;3522;50.856;7.278;2023-02-22T04:06:01;5.30;99.90
6964;DHT22;3522;50.856;7.278;2023-02-22T04:08:28;5.30;99.90
6964;DHT22;3522;50.856;7.278;2023-02-22T04:10:56;5.30;99.90
6964;DHT22;3522;50.856;7.278;2023-02-22T04:13:23;5.30;99.90
6964;DHT22;3522;50.856;7.278;2023-02-22T04:15:51;5.30;99.90
6964;DHT22;3522;50.856;7.278;2023-02-22T04:18:18;5.20;99.90
6964;DHT22;3522;50.856;7.278;2023-02-22T04:20:45;5.20;99.90
6964;DHT22;3522;50.856;7.278;2023-02-22T04:23:11;5.20;99.90
6964;DHT22;3522;50.856;7.278;2023-02-22T04:25:38;5.20;99.90
6964;DHT22;3522;50.856;7.278;2023-02-22T04:28:06;5.20;99.90
6964;DHT22;3522;50.856;7.278;2023-02-22T04:30:32;5.20;99.90
6964;DHT22;3522;50.856;7.278;2023-02-22T04:32:59;5.20;99.90
6964;DHT22;3522;50.856;7.278;2023-02-22T04:35:25;5.20;99.90
6964;DHT22;3522;50.856;7.278;2023-02-22T04:37:52;5.20;99.90
6964;DHT22;3522;50.856;7.278;2023-02-22T04:40:19;5.20;99.90
6964;DHT22;3522;50.856;7.278;2023-02-22T04:42:45;5.40;99.90
6964;DHT22;3522;50.856;7.278;2023-02-22T04:45:13;5.30;99.90
6964;DHT22;3522;50.856;7.278;2023-02-22T04:47:40;5.30;99.90
6964;DHT22;3522;50.856;7.278;2023-02-22T04:50:07;5.30;99.90
6964;DHT22;3522;50.856;7.278;2023-02-22T04:52:34;5.30;99.90
6964;DHT22;3522;50.856;7.278;2023-02-22T04:55:00;5.30;99.90
6964;DHT22;3522;50.856;7.278;2023-02-22T04:57:27;5.30;99.90
6964;DHT22;3522;50.856;7.278;2023-02-22T04:59:53;5.40;99.90
6964;DHT22;3522;50.856;7.278;2023-02-22T05:02:21;5.40;99.90
6964;DHT22;3522;50.856;7.278;2023-02-22T05:04:48;5.40;99.90
6964;DHT22;3522;50.856;7.278;2023-02-22T05:07:15;5.40;99.90
6964;DHT22;3522;50.856;7.278;2023-02-22T05:09:41;5.40;99.90
6964;DHT22;3522;50.856;7.278;2023-02-22T05:12:08;5.50;99.90
6964;DHT22;3522;50.856;7.278;2023-02-22T05:14:35;5.50;99.90
6964;DHT22;3522;50.856;7.278;2023-02-22T05:17:01;5.50;99.90
6964;DHT22;3522;50.856;7.278;2023-02-22T05:19:30;5.50;99.90
6964;DHT22;3522;50.856;7.278;2023-02-22T05:21:56;5.50;99.90
6964;DHT22;3522;50.856;7.278;2023-02-22T05:24:23;5.50;99.90
6964;DHT22;3522;50.856;7.278;2023-02-22T05:26:49;5.50;99.90
6964;DHT22;3522;50.856;7.278;2023-02-22T05:29:17;5.50;99.90
6964;DHT22;3522;50.856;7.278;2023-02-22T05:31:44;5.50;99.90
6964;DHT22;3522;50.856;7.278;2023-02-22T05:34:10;5.50;99.90
6964;DHT22;3522;50.856;7.278;2023-02-22T05:36:39;5.50;99.90
6964;DHT22;3522;50.856;7.278;2023-02-22T05:39:06;5.50;99.90
6964;DHT22;3522;50.856;7.278;2023-02-22T05:41:33;5.50;99.90
6964;DHT22;3522;50.856;7.278;2023-02-22T05:43:59;5.50;99.90
6964;DHT22;3522;50.856;7.278;2023-02-22T05:46:27;5.50;99.90
6964;DHT22;3522;50.856;7.278;2023-02-22T05:48:53;5.40;99.90
6964;DHT22;3522;50.856;7.278;2023-02-22T05:51:20;5.40;99.90
6964;DHT22;3522;50.856;7.278;2023-02-22T05:53:48;5.40;99.90
6964;DHT22;3522;50.856;7.278;2023-02-22T05:56:19;5.40;99.90
6964;DHT22;3522;50.856;7.278;2023-02-22T05:58:46;5.40;99.90
6964;DHT22;3522;50.856;7.278;2023-02-22T06:01:12;5.40;99.90
6964;DHT22;3522;50.856;7.278;2023-02-22T06:03:39;5.40;99.90
6964;DHT22;3522;50.856;7.278;2023-02-22T06:06:05;5.40;99.90
6964;DHT22;3522;50.856;7.278;2023-02-22T06:08:32;5.40;99.90
6964;DHT22;3522;50.856;7.278;2023-02-22T06:11:00;5.40;99.90
6964;DHT22;3522;50.856;7.278;2023-02-22T06:13:26;5.40;99.90
6964;DHT22;3522;50.856;7.278;2023-02-22T06:15:53;5.30;99.90
6964;DHT22;3522;50.856;7.278;2023-02-22T06:18:19;5.40;99.90
6964;DHT22;3522;50.856;7.278;2023-02-22T06:20:46;5.40;99.90
6964;DHT22;3522;50.856;7.278;2023-02-22T06:23:13;5.40;99.90
6964;DHT22;3522;50.856;7.278;2023-02-22T06:25:39;5.40;99.90
6964;DHT22;3522;50.856;7.278;2023-02-22T06:28:07;5.40;99.90
6964;DHT22;3522;50.856;7.278;2023-02-22T06:30:35;5.40;99.90
6964;DHT22;3522;50.856;7.278;2023-02-22T06:33:01;5.40;99.90
6964;DHT22;3522;50.856;7.278;2023-02-22T06:35:28;5.40;99.90
6964;DHT22;3522;50.856;7.278;2023-02-22T06:37:54;5.40;99.90
6964;DHT22;3522;50.856;7.278;2023-02-22T06:40:21;5.40;99.90
6964;DHT22;3522;50.856;7.278;2023-02-22T06:42:47;5.40;99.90
6964;DHT22;3522;50.856;7.278;2023-02-22T06:45:16;5.40;99.90
6964;DHT22;3522;50.856;7.278;2023-02-22T06:47:43;5.40;99.90
6964;DHT22;3522;50.856;7.278;2023-02-22T06:50:16;5.40;99.90
6964;DHT22;3522;50.856;7.278;2023-02-22T06:52:43;5.40;99.90
6964;DHT22;3522;50.856;7.278;2023-02-22T06:55:15;5.50;99.90
6964;DHT22;3522;50.856;7.278;2023-02-22T06:57:41;5.50;99.90
6964;DHT22;3522;50.856;7.278;2023-02-22T07:00:09;5.50;99.90
6964;DHT22;3522;50.856;7.278;2023-02-22T07:02:37;5.50;99.90
6964;DHT22;3522;50.856;7.278;2023-02-22T07:05:04;5.60;99.90
6964;DHT22;3522;50.856;7.278;2023-02-22T07:07:30;5.60;99.90
6964;DHT22;3522;50.856;7.278;2023-02-22T07:09:57;5.70;99.90
6964;DHT22;3522;50.856;7.278;2023-02-22T07:12:24;5.70;99.90
6964;DHT22;3522;50.856;7.278;2023-02-22T07:14:53;5.80;99.90
6964;DHT22;3522;50.856;7.278;2023-02-22T07:17:19;5.90;99.90
6964;DHT22;3522;50.856;7.278;2023-02-22T07:19:47;5.90;99.90
6964;DHT22;3522;50.856;7.278;2023-02-22T07:22:14;5.90;99.90
6964;DHT22;3522;50.856;7.278;2023-02-22T07:24:41;6.00;99.90
6964;DHT22;3522;50.856;7.278;2023-02-22T07:27:08;6.00;99.90
6964;DHT22;3522;50.856;7.278;2023-02-22T07:29:35;6.00;99.90
6964;DHT22;3522;50.856;7.278;2023-02-22T07:32:01;6.00;99.90
6964;DHT22;3522;50.856;7.278;2023-02-22T07:34:28;6.10;99.90
6964;DHT22;3522;50.856;7.278;2023-02-22T07:36:56;6.10;99.90
6964;DHT22;3522;50.856;7.278;2023-02-22T07:39:22;6.10;99.90
6964;DHT22;3522;50.856;7.278;2023-02-22T07:41:49;6.20;99.90
6964;DHT22;3522;50.856;7.278;2023-02-22T07:44:15;6.20;99.90
6964;DHT22;3522;50.856;7.278;2023-02-22T07:46:45;6.20;99.90
6964;DHT22;3522;50.856;7.278;2023-02-22T07:49:12;6.20;99.90
6964;DHT22;3522;50.856;7.278;2023-02-22T07:51:38;6.30;99.90
6964;DHT22;3522;50.856;7.278;2023-02-22T07:54:06;6.30;99.90
6964;DHT22;3522;50.856;7.278;2023-02-22T07:56:33;6.30;99.90
6964;DHT22;3522;50.856;7.278;2023-02-22T07:58:59;6.30;99.90
6964;DHT22;3522;50.856;7.278;2023-02-22T08:01:27;6.30;99.90
6964;DHT22;3522;50.856;7.278;2023-02-22T08:03:53;6.40;99.90
6964;DHT22;3522;50.856;7.278;2023-02-22T08:06:20;6.40;99.90
6964;DHT22;3522;50.856;7.278;2023-02-22T08:08:49;6.40;99.90
6964;DHT22;3522;50.856;7.278;2023-02-22T08:11:17;6.40;99.90
6964;DHT22;3522;50.856;7.278;2023-02-22T08:13:44;6.50;99.90
6964;DHT22;3522;50.856;7.278;2023-02-22T08:16:11;6.50;99.90
6964;DHT22;3522;50.856;7.278;2023-02-22T08:18:37;6.60;99.90
6964;DHT22;3522;50.856;7.278;2023-02-22T08:21:05;6.60;99.90
6964;DHT22;3522;50.856;7.278;2023-02-22T08:23:32;6.70;99.90
6964;DHT22;3522;50.856;7.278;2023-02-22T08:26:04;6.70;99.90
6964;DHT22;3522;50.856;7.278;2023-02-22T08:28:32;6.80;99.90
6964;DHT22;3522;50.856;7.278;2023-02-22T08:30:59;6.90;99.90
6964;DHT22;3522;50.856;7.278;2023-02-22T08:33:25;6.90;99.90
6964;DHT22;3522;50.856;7.278;2023-02-22T08:35:52;7.00;99.90
6964;DHT22;3522;50.856;7.278;2023-02-22T08:38:19;7.10;99.90
6964;DHT22;3522;50.856;7.278;2023-02-22T08:40:47;7.20;99.90
6964;DHT22;3522;50.856;7.278;2023-02-22T08:43:14;7.30;99.90
6964;DHT22;3522;50.856;7.278;2023-02-22T08:45:42;7.40;99.90
6964;DHT22;3522;50.856;7.278;2023-02-22T08:48:09;7.40;99.90
6964;DHT22;3522;50.856;7.278;2023-02-22T08:50:36;7.50;99.90
6964;DHT22;3522;50.856;7.278;2023-02-22T08:53:03;7.60;99.90
6964;DHT22;3522;50.856;7.278;2023-02-22T08:55:31;7.60;99.90
6964;DHT22;3522;50.856;7.278;2023-02-22T08:57:57;7.70;99.90
6964;DHT22;3522;50.856;7.278;2023-02-22T09:00:25;7.80;99.90
6964;DHT22;3522;50.856;7.278;2023-02-22T09:02:55;7.90;99.90
6964;DHT22;3522;50.856;7.278;2023-02-22T09:05:21;8.00;99.90
6964;DHT22;3522;50.856;7.278;2023-02-22T09:07:48;8.10;99.90
6964;DHT22;3522;50.856;7.278;2023-02-22T09:10:15;8.20;99.90
6964;DHT22;3522;50.856;7.278;2023-02-22T09:12:43;8.20;99.90
6964;DHT22;3522;50.856;7.278;2023-02-22T09:15:10;8.30;99.90
6964;DHT22;3522;50.856;7.278;2023-02-22T09:17:36;8.50;99.90
6964;DHT22;3522;50.856;7.278;2023-02-22T09:20:05;8.70;99.90
6964;DHT22;3522;50.856;7.278;2023-02-22T09:22:32;8.80;99.90
6964;DHT22;3522;50.856;7.278;2023-02-22T09:24:58;9.00;99.90
6964;DHT22;3522;50.856;7.278;2023-02-22T09:27:25;9.30;99.90
6964;DHT22;3522;50.856;7.278;2023-02-22T09:29:52;9.40;99.90
6964;DHT22;3522;50.856;7.278;2023-02-22T09:32:20;9.60;99.90
6964;DHT22;3522;50.856;7.278;2023-02-22T09:34:47;9.80;99.90
6964;DHT22;3522;50.856;7.278;2023-02-22T09:37:14;9.90;99.90
6964;DHT22;3522;50.856;7.278;2023-02-22T09:39:42;10.10;99.90
6964;DHT22;3522;50.856;7.278;2023-02-22T09:42:10;10.30;99.90
6964;DHT22;3522;50.856;7.278;2023-02-22T09:44:40;10.40;99.90
6964;DHT22;3522;50.856;7.278;2023-02-22T09:47:09;10.50;99.90
6964;DHT22;3522;50.856;7.278;2023-02-22T09:49:40;10.70;99.90
6964;DHT22;3522;50.856;7.278;2023-02-22T09:52:13;10.80;99.90
6964;DHT22;3522;50.856;7.278;2023-02-22T09:54:44;10.90;99.90
6964;DHT22;3522;50.856;7.278;2023-02-22T09:57:17;11.10;99.90
6964;DHT22;3522;50.856;7.278;2023-02-22T09:59:45;11.20;99.90
6964;DHT22;3522;50.856;7.278;2023-02-22T10:02:16;11.30;99.90
6964;DHT22;3522;50.856;7.278;2023-02-22T10:04:47;11.40;99.90
6964;DHT22;3522;50.856;7.278;2023-02-22T10:07:16;11.50;99.90
6964;DHT22;3522;50.856;7.278;2023-02-22T10:09:45;11.60;99.90
6964;DHT22;3522;50.856;7.278;2023-02-22T10:12:13;11.60;99.90
6964;DHT22;3522;50.856;7.278;2023-02-22T10:14:49;11.60;99.90
6964;DHT22;3522;50.856;7.278;2023-02-22T10:17:23;11.70;99.90
6964;DHT22;3522;50.856;7.278;2023-02-22T10:19:58;11.70;99.90
6964;DHT22;3522;50.856;7.278;2023-02-22T10:22:33;11.70;99.90
6964;DHT22;3522;50.856;7.278;2023-02-22T10:25:04;11.80;99.90
6964;DHT22;3522;50.856;7.278;2023-02-22T10:27:35;11.90;99.90
6964;DHT22;3522;50.856;7.278;2023-02-22T10:30:04;12.10;99.90
6964;DHT22;3522;50.856;7.278;2023-02-22T10:32:35;12.30;99.90
6964;DHT22;3522;50.856;7.278;2023-02-22T10:35:12;12.40;99.90
6964;DHT22;3522;50.856;7.278;2023-02-22T10:37:42;12.40;99.90
6964;DHT22;3522;50.856;7.278;2023-02-22T10:40:12;12.50;99.90
6964;DHT22;3522;50.856;7.278;2023-02-22T10:42:41;12.50;99.90
6964;DHT22;3522;50.856;7.278;2023-02-22T10:45:13;12.60;99.90
6964;DHT22;3522;50.856;7.278;2023-02-22T10:47:43;12.60;99.90
6964;DHT22;3522;50.856;7.278;2023-02-22T10:50:11;12.70;99.90
6964;DHT22;3522;50.856;7.278;2023-02-22T10:52:39;12.80;99.90
6964;DHT22;3522;50.856;7.278;2023-02-22T10:55:12;12.90;99.90
6964;DHT22;3522;50.856;7.278;2023-02-22T10:57:39;13.00;99.90
6964;DHT22;3522;50.856;7.278;2023-02-22T11:00:13;13.20;99.90
6964;DHT22;3522;50.856;7.278;2023-02-22T11:02:48;13.20;99.90
6964;DHT22;3522;50.856;7.278;2023-02-22T11:05:25;13.40;99.90
6964;DHT22;3522;50.856;7.278;2023-02-22T11:07:52;13.50;99.90
6964;DHT22;3522;50.856;7.278;2023-02-22T11:10:40;13.60;99.90
6964;DHT22;3522;50.856;7.278;2023-02-22T11:13:15;13.80;99.90
6964;DHT22;3522;50.856;7.278;2023-02-22T11:15:42;13.80;99.90
6964;DHT22;3522;50.856;7.278;2023-02-22T11:18:15;14.00;99.90
6964;DHT22;3522;50.856;7.278;2023-02-22T11:20:47;13.90;99.90
6964;DHT22;3522;50.856;7.278;2023-02-22T11:23:13;13.90;99.90
6964;DHT22;3522;50.856;7.278;2023-02-22T11:25:48;13.80;99.90
6964;DHT22;3522;50.856;7.278;2023-02-22T11:28:18;13.70;99.90
6964;DHT22;3522;50.856;7.278;2023-02-22T11:30:55;13.80;99.90
6964;DHT22;3522;50.856;7.278;2023-02-22T11:33:22;13.80;99.90
6964;DHT22;3522;50.856;7.278;2023-02-22T11:35:50;13.80;99.90
6964;DHT22;3522;50.856;7.278;2023-02-22T11:38:18;13.80;99.90
6964;DHT22;3522;50.856;7.278;2023-02-22T11:40:46;13.80;99.90
6964;DHT22;3522;50.856;7.278;2023-02-22T11:43:31;13.90;99.90
6964;DHT22;3522;50.856;7.278;2023-02-22T11:45:58;13.90;99.90
6964;DHT22;3522;50.856;7.278;2023-02-22T11:48:27;14.00;99.90
6964;DHT22;3522;50.856;7.278;2023-02-22T11:50:57;14.00;99.90
6964;DHT22;3522;50.856;7.278;2023-02-22T11:53:30;14.00;99.90
6964;DHT22;3522;50.856;7.278;2023-02-22T11:56:08;14.00;99.90
6964;DHT22;3522;50.856;7.278;2023-02-22T11:58:40;14.00;99.90
6964;DHT22;3522;50.856;7.278;2023-02-22T12:01:10;14.00;99.90
6964;DHT22;3522;50.856;7.278;2023-02-22T12:03:51;13.90;99.90
6964;DHT22;3522;50.856;7.278;2023-02-22T12:06:21;13.90;99.90
6964;DHT22;3522;50.856;7.278;2023-02-22T12:08:52;13.90;99.90
6964;DHT22;3522;50.856;7.278;2023-02-22T12:11:22;13.80;99.90
6964;DHT22;3522;50.856;7.278;2023-02-22T12:14:03;13.70;99.90
6964;DHT22;3522;50.856;7.278;2023-02-22T12:16:36;13.60;99.90
6964;DHT22;3522;50.856;7.278;2023-02-22T12:19:10;13.50;99.90
6964;DHT22;3522;50.856;7.278;2023-02-22T12:21:41;13.50;99.90
6964;DHT22;3522;50.856;7.278;2023-02-22T12:24:09;13.40;99.90
6964;DHT22;3522;50.856;7.278;2023-02-22T12:26:39;13.30;99.90
6964;DHT22;3522;50.856;7.278;2023-02-22T12:29:10;13.20;99.90
6964;DHT22;3522;50.856;7.278;2023-02-22T12:31:40;13.30;99.90
6964;DHT22;3522;50.856;7.278;2023-02-22T12:34:11;13.10;99.90
6964;DHT22;3522;50.856;7.278;2023-02-22T12:36:40;12.90;99.90
6964;DHT22;3522;50.856;7.278;2023-02-22T12:39:23;12.80;99.90
6964;DHT22;3522;50.856;7.278;2023-02-22T12:41:51;12.80;99.90
6964;DHT22;3522;50.856;7.278;2023-02-22T12:44:22;12.80;99.90
6964;DHT22;3522;50.856;7.278;2023-02-22T12:46:51;12.80;99.90
6964;DHT22;3522;50.856;7.278;2023-02-22T12:49:19;13.00;99.90
6964;DHT22;3522;50.856;7.278;2023-02-22T12:51:48;12.90;99.90
6964;DHT22;3522;50.856;7.278;2023-02-22T12:54:19;13.00;99.90
6964;DHT22;3522;50.856;7.278;2023-02-22T12:56:48;13.00;99.90
6964;DHT22;3522;50.856;7.278;2023-02-22T12:59:16;13.00;99.90
6964;DHT22;3522;50.856;7.278;2023-02-22T13:01:48;13.20;99.90
6964;DHT22;3522;50.856;7.278;2023-02-22T13:04:16;13.30;99.90
6964;DHT22;3522;50.856;7.278;2023-02-22T13:06:46;13.30;99.90
6964;DHT22;3522;50.856;7.278;2023-02-22T13:12:00;13.40;99.90
6964;DHT22;3522;50.856;7.278;2023-02-22T13:14:35;13.40;99.90
6964;DHT22;3522;50.856;7.278;2023-02-22T13:17:07;13.50;99.90
6964;DHT22;3522;50.856;7.278;2023-02-22T13:19:37;13.50;99.90
6964;DHT22;3522;50.856;7.278;2023-02-22T13:22:08;13.60;99.90
6964;DHT22;3522;50.856;7.278;2023-02-22T13:24:40;13.60;99.90
6964;DHT22;3522;50.856;7.278;2023-02-22T13:27:09;13.70;99.90
6964;DHT22;3522;50.856;7.278;2023-02-22T13:29:37;13.70;99.90
6964;DHT22;3522;50.856;7.278;2023-02-22T13:32:12;13.80;99.90
6964;DHT22;3522;50.856;7.278;2023-02-22T13:34:47;13.80;99.90
6964;DHT22;3522;50.856;7.278;2023-02-22T13:37:25;13.80;99.90
6964;DHT22;3522;50.856;7.278;2023-02-22T13:42:50;13.80;99.90
6964;DHT22;3522;50.856;7.278;2023-02-22T13:50:54;13.90;99.90
6964;DHT22;3522;50.856;7.278;2023-02-22T13:53:23;13.90;99.90
6964;DHT22;3522;50.856;7.278;2023-02-22T13:55:52;13.90;99.90
6964;DHT22;3522;50.856;7.278;2023-02-22T13:58:20;14.00;99.90
6964;DHT22;3522;50.856;7.278;2023-02-22T14:00:48;14.00;99.90
6964;DHT22;3522;50.856;7.278;2023-02-22T14:06:02;14.00;99.90
6964;DHT22;3522;50.856;7.278;2023-02-22T14:08:41;14.10;99.90
6964;DHT22;3522;50.856;7.278;2023-02-22T14:14:09;14.10;99.90
6964;DHT22;3522;50.856;7.278;2023-02-22T14:16:37;14.10;99.90
6964;DHT22;3522;50.856;7.278;2023-02-22T14:19:04;14.20;99.90
6964;DHT22;3522;50.856;7.278;2023-02-22T14:21:33;14.30;99.90
6964;DHT22;3522;50.856;7.278;2023-02-22T14:24:06;14.40;99.90
6964;DHT22;3522;50.856;7.278;2023-02-22T14:26:35;14.40;99.90
6964;DHT22;3522;50.856;7.278;2023-02-22T14:29:13;14.50;99.90
6964;DHT22;3522;50.856;7.278;2023-02-22T14:31:55;14.50;99.90
6964;DHT22;3522;50.856;7.278;2023-02-22T14:34:30;14.60;99.90
6964;DHT22;3522;50.856;7.278;2023-02-22T14:37:07;14.60;99.90
6964;DHT22;3522;50.856;7.278;2023-02-22T14:39:34;14.70;99.90
6964;DHT22;3522;50.856;7.278;2023-02-22T14:42:04;14.60;99.90
6964;DHT22;3522;50.856;7.278;2023-02-22T14:44:33;14.60;99.90
6964;DHT22;3522;50.856;7.278;2023-02-22T14:47:02;14.70;99.90
6964;DHT22;3522;50.856;7.278;2023-02-22T14:49:30;14.60;99.90
6964;DHT22;3522;50.856;7.278;2023-02-22T14:51:58;14.50;99.90
6964;DHT22;3522;50.856;7.278;2023-02-22T14:54:30;14.50;99.90
6964;DHT22;3522;50.856;7.278;2023-02-22T14:57:03;14.50;99.90
6964;DHT22;3522;50.856;7.278;2023-02-22T14:59:47;14.50;99.90
6964;DHT22;3522;50.856;7.278;2023-02-22T15:02:17;14.40;99.90
6964;DHT22;3522;50.856;7.278;2023-02-22T15:04:48;14.30;99.90
6964;DHT22;3522;50.856;7.278;2023-02-22T15:07:18;14.30;99.90
6964;DHT22;3522;50.856;7.278;2023-02-22T15:09:47;14.20;99.90
6964;DHT22;3522;50.856;7.278;2023-02-22T15:12:15;14.10;99.90
6964;DHT22;3522;50.856;7.278;2023-02-22T15:14:45;13.90;99.90
6964;DHT22;3522;50.856;7.278;2023-02-22T15:17:17;13.90;99.90
6964;DHT22;3522;50.856;7.278;2023-02-22T15:19:44;13.90;99.90
6964;DHT22;3522;50.856;7.278;2023-02-22T15:22:17;13.80;99.90
6964;DHT22;3522;50.856;7.278;2023-02-22T15:24:45;13.70;99.90
6964;DHT22;3522;50.856;7.278;2023-02-22T15:27:20;13.60;99.90
6964;DHT22;3522;50.856;7.278;2023-02-22T15:29:47;13.50;99.90
6964;DHT22;3522;50.856;7.278;2023-02-22T15:32:17;13.50;99.90
6964;DHT22;3522;50.856;7.278;2023-02-22T15:34:44;13.50;99.90
6964;DHT22;3522;50.856;7.278;2023-02-22T15:37:18;13.40;99.90
6964;DHT22;3522;50.856;7.278;2023-02-22T15:39:49;13.40;99.90
6964;DHT22;3522;50.856;7.278;2023-02-22T15:42:25;13.40;99.90
6964;DHT22;3522;50.856;7.278;2023-02-22T15:44:54;13.40;99.90
6964;DHT22;3522;50.856;7.278;2023-02-22T15:47:22;13.40;99.90
6964;DHT22;3522;50.856;7.278;2023-02-22T15:52:32;13.30;99.90
6964;DHT22;3522;50.856;7.278;2023-02-22T15:54:58;13.30;99.90
6964;DHT22;3522;50.856;7.278;2023-02-22T15:57:26;13.30;99.90
6964;DHT22;3522;50.856;7.278;2023-02-22T15:59:55;13.20;99.90
6964;DHT22;3522;50.856;7.278;2023-02-22T16:02:32;13.10;99.90
6964;DHT22;3522;50.856;7.278;2023-02-22T16:05:02;13.10;99.90
6964;DHT22;3522;50.856;7.278;2023-02-22T16:07:29;13.00;99.90
6964;DHT22;3522;50.856;7.278;2023-02-22T16:09:56;12.80;99.90
6964;DHT22;3522;50.856;7.278;2023-02-22T16:12:24;12.80;99.90
6964;DHT22;3522;50.856;7.278;2023-02-22T16:14:52;12.70;99.90
6964;DHT22;3522;50.856;7.278;2023-02-22T16:17:26;12.60;99.90
6964;DHT22;3522;50.856;7.278;2023-02-22T16:19:56;12.50;99.90
6964;DHT22;3522;50.856;7.278;2023-02-22T16:22:24;12.40;99.90
6964;DHT22;3522;50.856;7.278;2023-02-22T16:24:51;12.40;99.90
6964;DHT22;3522;50.856;7.278;2023-02-22T16:27:19;12.30;99.90
6964;DHT22;3522;50.856;7.278;2023-02-22T16:30:01;12.20;99.90
6964;DHT22;3522;50.856;7.278;2023-02-22T16:32:27;12.20;99.90
6964;DHT22;3522;50.856;7.278;2023-02-22T16:34:54;12.10;99.90
6964;DHT22;3522;50.856;7.278;2023-02-22T16:37:21;12.00;99.90
6964;DHT22;3522;50.856;7.278;2023-02-22T16:39:48;12.10;99.90
6964;DHT22;3522;50.856;7.278;2023-02-22T16:42:16;11.90;99.90
6964;DHT22;3522;50.856;7.278;2023-02-22T16:44:49;11.90;99.90